createdAt,value
2017-07-04T00:00:44.956Z,0
2017-07-04T00:01:45.264Z,0
2017-07-04T00:02:44.944Z,0
2017-07-04T00:03:44.932Z,0
2017-07-04T00:04:45.221Z,0
2017-07-04T00:05:45.260Z,0
2017-07-04T00:06:45.225Z,0
2017-07-04T00:07:44.303Z,0
2017-07-04T00:08:45.536Z,0
2017-07-04T00:09:45.239Z,0
2017-07-04T00:10:45.545Z,0
2017-07-04T00:11:45.534Z,0
2017-07-04T00:12:45.556Z,0
2017-07-04T00:13:45.240Z,0
2017-07-04T00:14:44.573Z,0
2017-07-04T00:15:45.205Z,0
2017-07-04T00:16:45.215Z,0
2017-07-04T00:17:45.216Z,0
2017-07-04T00:18:45.515Z,0
2017-07-04T00:19:45.199Z,0
2017-07-04T00:20:45.191Z,0
2017-07-04T00:21:45.193Z,0
2017-07-04T00:22:44.859Z,0
2017-07-04T00:23:44.884Z,0
2017-07-04T00:24:45.488Z,0
2017-07-04T00:25:45.510Z,0
2017-07-04T00:26:44.851Z,0
2017-07-04T00:27:45.160Z,0
2017-07-04T00:28:45.179Z,0
2017-07-04T00:29:44.865Z,0
2017-07-04T00:30:44.534Z,0
2017-07-04T00:31:45.476Z,0
2017-07-04T00:32:45.464Z,0
2017-07-04T00:33:44.813Z,0
2017-07-04T00:34:44.210Z,0
2017-07-04T00:35:44.829Z,0
2017-07-04T00:36:45.126Z,0
2017-07-04T00:37:45.154Z,0
2017-07-04T00:38:45.135Z,0
2017-07-04T00:39:45.147Z,0
2017-07-04T00:40:45.441Z,0
2017-07-04T00:41:45.443Z,0
2017-07-04T00:42:45.413Z,0
2017-07-04T00:43:45.431Z,0
2017-07-04T00:44:45.402Z,0
2017-07-04T00:45:44.803Z,0
2017-07-04T00:46:45.114Z,0
2017-07-04T00:47:45.415Z,0
2017-07-04T00:48:45.396Z,0
2017-07-04T00:49:45.398Z,0
2017-07-04T00:50:45.096Z,0
2017-07-04T00:51:45.087Z,0
2017-07-04T00:52:44.787Z,0
2017-07-04T00:53:44.436Z,0
2017-07-04T00:54:45.089Z,0
2017-07-04T00:55:45.069Z,0
2017-07-04T00:56:45.071Z,0
2017-07-04T00:57:44.430Z,0
2017-07-04T00:58:44.766Z,0
2017-07-04T00:59:44.758Z,0
2017-07-04T01:00:45.122Z,0
2017-07-04T01:01:45.033Z,0
2017-07-04T01:02:44.728Z,0
2017-07-04T01:03:44.734Z,0
2017-07-04T01:04:45.356Z,0
2017-07-04T01:05:45.040Z,0
2017-07-04T01:06:44.423Z,0
2017-07-04T01:07:44.078Z,0
2017-07-04T01:08:44.409Z,0
2017-07-04T01:09:44.707Z,0
2017-07-04T01:10:45.074Z,0
2017-07-04T01:11:45.015Z,0
2017-07-04T01:12:45.346Z,0
2017-07-04T01:13:44.672Z,0
2017-07-04T01:14:44.709Z,0
2017-07-04T01:15:45.305Z,0
2017-07-04T01:16:45.315Z,0
2017-07-04T01:17:44.691Z,0
2017-07-04T01:18:45.308Z,0
2017-07-04T01:19:44.990Z,0
2017-07-04T01:20:44.654Z,0
2017-07-04T01:21:45.283Z,0
2017-07-04T01:22:44.660Z,0
2017-07-04T01:23:44.972Z,0
2017-07-04T01:24:44.976Z,0
2017-07-04T01:25:44.954Z,0
2017-07-04T01:26:44.656Z,0
2017-07-04T01:27:45.285Z,0
2017-07-04T01:28:44.927Z,0
2017-07-04T01:29:44.320Z,0
2017-07-04T01:30:45.241Z,0
2017-07-04T01:31:44.626Z,0
2017-07-04T01:32:44.616Z,0
2017-07-04T01:33:45.290Z,0
2017-07-04T01:34:44.930Z,0
2017-07-04T01:35:44.919Z,0
2017-07-04T01:36:45.225Z,0
2017-07-04T01:37:44.602Z,0
2017-07-04T01:38:45.242Z,0
2017-07-04T01:39:44.923Z,0
2017-07-04T01:40:44.616Z,0
2017-07-04T01:41:44.892Z,0
2017-07-04T01:42:44.264Z,0
2017-07-04T01:43:44.889Z,0
2017-07-04T01:44:44.579Z,0
2017-07-04T01:45:44.572Z,0
2017-07-04T01:46:44.279Z,0
2017-07-04T01:47:44.873Z,0
2017-07-04T01:48:44.257Z,0
2017-07-04T01:49:45.174Z,0
2017-07-04T01:50:45.185Z,0
2017-07-04T01:51:44.864Z,0
2017-07-04T01:52:44.562Z,0
2017-07-04T01:53:44.540Z,0
2017-07-04T01:54:44.230Z,0
2017-07-04T01:55:45.178Z,0
2017-07-04T01:56:44.856Z,0
2017-07-04T01:57:44.828Z,0
2017-07-04T01:58:44.839Z,0
2017-07-04T01:59:45.116Z,0
2017-07-04T02:00:44.849Z,0
2017-07-04T02:01:44.801Z,0
2017-07-04T02:02:44.843Z,0
2017-07-04T02:03:44.816Z,0
2017-07-04T02:04:45.136Z,0
2017-07-04T02:05:45.102Z,0
2017-07-04T02:06:44.800Z,0
2017-07-04T02:07:44.797Z,0
2017-07-04T02:08:44.805Z,0
2017-07-04T02:09:44.806Z,0
2017-07-04T02:10:44.460Z,0
2017-07-04T02:11:44.774Z,0
2017-07-04T02:12:44.452Z,0
2017-07-04T02:13:44.471Z,0
2017-07-04T02:14:44.146Z,0
2017-07-04T02:15:44.151Z,0
2017-07-04T02:16:43.810Z,0
2017-07-04T02:17:45.080Z,0
2017-07-04T02:18:45.070Z,0
2017-07-04T02:19:44.770Z,0
2017-07-04T02:20:44.748Z,0
2017-07-04T02:21:44.092Z,0
2017-07-04T02:22:44.739Z,0
2017-07-04T02:23:44.094Z,0
2017-07-04T02:24:44.419Z,0
2017-07-04T02:25:44.734Z,0
2017-07-04T02:26:44.385Z,0
2017-07-04T02:27:44.704Z,0
2017-07-04T02:28:45.011Z,0
2017-07-04T02:29:44.718Z,0
2017-07-04T02:30:44.379Z,0
2017-07-04T02:31:44.391Z,0
2017-07-04T02:32:44.989Z,0
2017-07-04T02:33:44.704Z,0
2017-07-04T02:34:44.663Z,0
2017-07-04T02:35:44.671Z,5
2017-07-04T02:36:44.025Z,5
2017-07-04T02:37:44.677Z,5
2017-07-04T02:38:44.965Z,5
2017-07-04T02:39:44.644Z,5
2017-07-04T02:40:44.639Z,5
2017-07-04T02:41:44.643Z,5
2017-07-04T02:42:44.327Z,5
2017-07-04T02:43:44.618Z,5
2017-07-04T02:44:44.628Z,5
2017-07-04T02:45:44.636Z,5
2017-07-04T02:46:44.936Z,10
2017-07-04T02:47:44.304Z,10
2017-07-04T02:48:44.282Z,10
2017-07-04T02:49:44.298Z,10
2017-07-04T02:50:44.584Z,10
2017-07-04T02:51:44.591Z,10
2017-07-04T02:52:44.248Z,15
2017-07-04T02:53:44.272Z,15
2017-07-04T02:54:43.944Z,15
2017-07-04T02:55:44.249Z,15
2017-07-04T02:56:44.238Z,20
2017-07-04T02:57:44.859Z,20
2017-07-04T02:58:44.248Z,20
2017-07-04T02:59:44.862Z,20
2017-07-04T03:00:44.608Z,20
2017-07-04T03:01:44.207Z,25
2017-07-04T03:02:44.537Z,25
2017-07-04T03:03:44.839Z,30
2017-07-04T03:04:44.526Z,30
2017-07-04T03:05:44.511Z,35
2017-07-04T03:06:43.903Z,35
2017-07-04T03:07:44.815Z,40
2017-07-04T03:08:44.190Z,40
2017-07-04T03:09:44.794Z,40
2017-07-04T03:10:44.493Z,45
2017-07-04T03:11:44.164Z,45
2017-07-04T03:12:44.464Z,45
2017-07-04T03:13:44.148Z,50
2017-07-04T03:14:44.155Z,50
2017-07-04T03:15:44.469Z,55
2017-07-04T03:16:44.786Z,55
2017-07-04T03:17:44.442Z,60
2017-07-04T03:18:44.772Z,55
2017-07-04T03:19:44.434Z,55
2017-07-04T03:20:44.439Z,60
2017-07-04T03:21:44.100Z,65
2017-07-04T03:22:44.440Z,70
2017-07-04T03:23:44.107Z,70
2017-07-04T03:24:44.426Z,80
2017-07-04T03:25:43.773Z,80
2017-07-04T03:26:43.463Z,85
2017-07-04T03:27:44.757Z,95
2017-07-04T03:28:44.714Z,100
2017-07-04T03:29:44.402Z,105
2017-07-04T03:30:43.746Z,110
2017-07-04T03:31:44.388Z,110
2017-07-04T03:32:44.385Z,110
2017-07-04T03:33:44.706Z,120
2017-07-04T03:34:44.365Z,115
2017-07-04T03:35:43.724Z,115
2017-07-04T03:36:43.734Z,120
2017-07-04T03:37:43.705Z,120
2017-07-04T03:38:44.680Z,130
2017-07-04T03:39:44.349Z,140
2017-07-04T03:40:44.346Z,145
2017-07-04T03:41:44.332Z,155
2017-07-04T03:42:44.331Z,165
2017-07-04T03:43:44.326Z,170
2017-07-04T03:44:43.703Z,165
2017-07-04T03:45:44.019Z,170
2017-07-04T03:46:44.300Z,170
2017-07-04T03:47:44.315Z,180
2017-07-04T03:48:44.305Z,195
2017-07-04T03:49:44.632Z,195
2017-07-04T03:50:44.307Z,195
2017-07-04T03:51:43.685Z,195
2017-07-04T03:52:44.287Z,195
2017-07-04T03:53:44.633Z,215
2017-07-04T03:54:43.960Z,225
2017-07-04T03:55:44.590Z,225
2017-07-04T03:56:44.272Z,240
2017-07-04T03:57:44.627Z,250
2017-07-04T03:58:44.292Z,250
2017-07-04T03:59:44.600Z,235
2017-07-04T04:00:43.958Z,250
2017-07-04T04:01:43.660Z,245
2017-07-04T04:02:43.951Z,270
2017-07-04T04:03:43.960Z,270
2017-07-04T04:04:43.616Z,290
2017-07-04T04:05:43.970Z,290
2017-07-04T04:06:44.267Z,300
2017-07-04T04:07:44.270Z,300
2017-07-04T04:08:44.581Z,315
2017-07-04T04:09:44.595Z,320
2017-07-04T04:10:44.243Z,320
2017-07-04T04:11:43.316Z,320
2017-07-04T04:12:44.580Z,325
2017-07-04T04:13:43.971Z,345
2017-07-04T04:14:43.636Z,305
2017-07-04T04:15:44.278Z,315
2017-07-04T04:16:43.628Z,325
2017-07-04T04:17:43.941Z,330
2017-07-04T04:18:44.281Z,335
2017-07-04T04:19:44.259Z,350
2017-07-04T04:20:44.299Z,345
2017-07-04T04:21:43.959Z,340
2017-07-04T04:22:44.598Z,350
2017-07-04T04:23:44.576Z,330
2017-07-04T04:24:44.612Z,355
2017-07-04T04:25:44.260Z,300
2017-07-04T04:26:43.668Z,360
2017-07-04T04:27:43.657Z,305
2017-07-04T04:28:44.268Z,365
2017-07-04T04:29:43.999Z,355
2017-07-04T04:30:43.980Z,315
2017-07-04T04:31:43.914Z,205
2017-07-04T04:32:43.672Z,190
2017-07-04T04:33:43.984Z,140
2017-07-04T04:34:44.006Z,115
2017-07-04T04:35:43.997Z,120
2017-07-04T04:36:44.015Z,110
2017-07-04T04:37:44.008Z,110
2017-07-04T04:38:44.640Z,150
2017-07-04T04:39:43.694Z,180
2017-07-04T04:40:44.630Z,200
2017-07-04T04:41:44.339Z,200
2017-07-04T04:42:44.328Z,175
2017-07-04T04:43:44.341Z,235
2017-07-04T04:44:44.329Z,190
2017-07-04T04:45:44.035Z,265
2017-07-04T04:46:44.025Z,240
2017-07-04T04:47:44.352Z,240
2017-07-04T04:48:44.024Z,260
2017-07-04T04:49:44.035Z,215
2017-07-04T04:50:44.355Z,240
2017-07-04T04:51:44.668Z,245
2017-07-04T04:52:44.344Z,220
2017-07-04T04:53:44.695Z,190
2017-07-04T04:54:44.349Z,195
2017-07-04T04:55:44.074Z,195
2017-07-04T04:56:43.716Z,205
2017-07-04T04:57:44.689Z,205
2017-07-04T04:58:44.028Z,225
2017-07-04T04:59:44.053Z,280
2017-07-04T05:00:43.716Z,310
2017-07-04T05:01:44.991Z,215
2017-07-04T05:02:44.678Z,260
2017-07-04T05:03:44.378Z,250
2017-07-04T05:04:44.353Z,315
2017-07-04T05:05:44.358Z,290
2017-07-04T05:06:44.062Z,190
2017-07-04T05:07:44.056Z,205
2017-07-04T05:08:44.065Z,255
2017-07-04T05:09:44.667Z,310
2017-07-04T05:10:44.384Z,180
2017-07-04T05:11:44.050Z,140
2017-07-04T05:12:44.382Z,155
2017-07-04T05:13:44.038Z,170
2017-07-04T05:14:44.065Z,145
2017-07-04T05:15:44.354Z,110
2017-07-04T05:16:44.057Z,115
2017-07-04T05:17:43.724Z,160
2017-07-04T05:18:44.695Z,120
2017-07-04T05:19:44.692Z,165
2017-07-04T05:20:44.056Z,205
2017-07-04T05:21:44.359Z,225
2017-07-04T05:22:44.359Z,185
2017-07-04T05:23:44.056Z,225
2017-07-04T05:24:44.700Z,160
2017-07-04T05:25:44.339Z,165
2017-07-04T05:26:44.668Z,180
2017-07-04T05:27:44.033Z,145
2017-07-04T05:28:44.050Z,115
2017-07-04T05:29:44.030Z,140
2017-07-04T05:30:44.046Z,175
2017-07-04T05:31:44.351Z,125
2017-07-04T05:32:44.370Z,115
2017-07-04T05:33:44.351Z,115
2017-07-04T05:34:44.340Z,115
2017-07-04T05:35:44.022Z,155
2017-07-04T05:36:44.355Z,200
2017-07-04T05:37:44.355Z,210
2017-07-04T05:38:44.355Z,155
2017-07-04T05:39:44.345Z,160
2017-07-04T05:40:44.018Z,150
2017-07-04T05:41:44.348Z,110
2017-07-04T05:42:44.010Z,80
2017-07-04T05:43:44.014Z,60
2017-07-04T05:44:44.660Z,65
2017-07-04T05:45:44.310Z,65
2017-07-04T05:46:43.712Z,85
2017-07-04T05:47:44.014Z,110
2017-07-04T05:48:44.347Z,115
2017-07-04T05:49:43.366Z,170
2017-07-04T05:50:44.644Z,575
2017-07-04T05:51:43.685Z,255
2017-07-04T05:52:43.711Z,340
2017-07-04T05:53:44.334Z,415
2017-07-04T05:54:44.639Z,385
2017-07-04T05:55:44.013Z,515
2017-07-04T05:56:44.003Z,290
2017-07-04T05:57:44.646Z,220
2017-07-04T05:58:44.318Z,215
2017-07-04T05:59:44.332Z,245
2017-07-04T06:00:44.000Z,255
2017-07-04T06:01:44.015Z,255
2017-07-04T06:02:44.058Z,315
2017-07-04T06:03:43.995Z,330
2017-07-04T06:04:44.305Z,265
2017-07-04T06:05:44.011Z,200
2017-07-04T06:06:43.687Z,175
2017-07-04T06:07:44.318Z,175
2017-07-04T06:08:44.323Z,220
2017-07-04T06:09:44.001Z,260
2017-07-04T06:10:43.971Z,285
2017-07-04T06:11:44.305Z,315
2017-07-04T06:12:43.994Z,255
2017-07-04T06:13:44.321Z,295
2017-07-04T06:14:43.668Z,245
2017-07-04T06:15:44.322Z,225
2017-07-04T06:16:44.292Z,220
2017-07-04T06:17:43.991Z,265
2017-07-04T06:18:44.603Z,315
2017-07-04T06:19:44.301Z,330
2017-07-04T06:20:44.283Z,300
2017-07-04T06:21:44.305Z,305
2017-07-04T06:22:44.603Z,270
2017-07-04T06:23:43.978Z,255
2017-07-04T06:24:44.303Z,225
2017-07-04T06:25:43.677Z,255
2017-07-04T06:26:44.606Z,335
2017-07-04T06:27:44.617Z,455
2017-07-04T06:28:44.597Z,1030
2017-07-04T06:29:44.305Z,885
2017-07-04T06:30:44.277Z,1410
2017-07-04T06:31:43.661Z,1475
2017-07-04T06:32:44.587Z,1550
2017-07-04T06:33:43.675Z,1525
2017-07-04T06:34:43.661Z,520
2017-07-04T06:35:44.278Z,390
2017-07-04T06:36:43.970Z,495
2017-07-04T06:37:43.960Z,715
2017-07-04T06:38:43.963Z,690
2017-07-04T06:39:44.279Z,640
2017-07-04T06:40:44.311Z,710
2017-07-04T06:41:44.308Z,510
2017-07-04T06:42:44.295Z,430
2017-07-04T06:43:44.306Z,405
2017-07-04T06:44:43.659Z,365
2017-07-04T06:45:44.339Z,340
2017-07-04T06:46:43.993Z,305
2017-07-04T06:47:43.703Z,235
2017-07-04T06:48:44.625Z,185
2017-07-04T06:49:44.346Z,170
2017-07-04T06:50:44.003Z,180
2017-07-04T06:51:44.334Z,170
2017-07-04T06:52:44.013Z,165
2017-07-04T06:53:43.706Z,185
2017-07-04T06:54:43.707Z,220
2017-07-04T06:55:44.664Z,240
2017-07-04T06:56:43.372Z,215
2017-07-04T06:57:43.702Z,230
2017-07-04T06:58:44.036Z,250
2017-07-04T06:59:44.335Z,295
2017-07-04T07:00:44.347Z,410
2017-07-04T07:01:44.034Z,530
2017-07-04T07:02:44.336Z,980
2017-07-04T07:03:44.675Z,630
2017-07-04T07:04:44.641Z,565
2017-07-04T07:05:44.673Z,550
2017-07-04T07:06:44.314Z,525
2017-07-04T07:07:44.032Z,475
2017-07-04T07:08:44.656Z,405
2017-07-04T07:09:43.414Z,445
2017-07-04T07:10:44.675Z,1775
2017-07-04T07:11:43.725Z,610
2017-07-04T07:12:44.334Z,385
2017-07-04T07:13:44.342Z,410
2017-07-04T07:14:44.047Z,540
2017-07-04T07:15:44.684Z,325
2017-07-04T07:16:44.366Z,335
2017-07-04T07:17:44.030Z,415
2017-07-04T07:18:44.675Z,1765
2017-07-04T07:19:44.663Z,425
2017-07-04T07:20:43.745Z,1675
2017-07-04T07:21:44.044Z,295
2017-07-04T07:22:44.382Z,330
2017-07-04T07:23:43.748Z,435
2017-07-04T07:24:44.394Z,770
2017-07-04T07:25:44.368Z,1960
2017-07-04T07:26:44.380Z,640
2017-07-04T07:27:44.069Z,825
2017-07-04T07:28:44.705Z,470
2017-07-04T07:29:44.691Z,445
2017-07-04T07:30:44.396Z,475
2017-07-04T07:31:44.718Z,510
2017-07-04T07:32:44.732Z,630
2017-07-04T07:33:44.706Z,700
2017-07-04T07:34:44.717Z,410
2017-07-04T07:35:44.394Z,440
2017-07-04T07:36:44.455Z,380
2017-07-04T07:37:44.087Z,580
2017-07-04T07:38:44.431Z,235
2017-07-04T07:39:44.419Z,250
2017-07-04T07:40:44.124Z,240
2017-07-04T07:41:44.401Z,315
2017-07-04T07:42:44.420Z,320
2017-07-04T07:43:44.750Z,1910
2017-07-04T07:44:44.125Z,1955
2017-07-04T07:45:44.449Z,1910
2017-07-04T07:46:44.123Z,1970
2017-07-04T07:47:44.743Z,2005
2017-07-04T07:48:44.445Z,2050
2017-07-04T07:49:44.459Z,2120
2017-07-04T07:50:44.451Z,2175
2017-07-04T07:51:44.773Z,2250
2017-07-04T07:53:44.781Z,730
2017-07-04T07:54:44.498Z,1415
2017-07-04T07:55:44.497Z,620
2017-07-04T07:56:44.498Z,660
2017-07-04T07:57:44.472Z,585
2017-07-04T07:58:44.806Z,440
2017-07-04T07:59:44.841Z,500
2017-07-04T08:00:44.839Z,2420
2017-07-04T08:01:44.856Z,2190
2017-07-04T08:02:44.511Z,840
2017-07-04T08:03:44.218Z,2405
2017-07-04T08:04:44.553Z,1020
2017-07-04T08:05:43.911Z,470
2017-07-04T08:06:44.572Z,475
2017-07-04T08:07:43.930Z,505
2017-07-04T08:08:44.583Z,2185
2017-07-04T08:09:44.574Z,1050
2017-07-04T08:10:44.918Z,1235
2017-07-04T08:11:44.595Z,2350
2017-07-04T08:12:43.966Z,755
2017-07-04T08:13:44.603Z,2330
2017-07-04T08:14:44.611Z,2070
2017-07-04T08:15:44.309Z,2375
2017-07-04T08:16:44.935Z,2315
2017-07-04T08:17:44.639Z,2365
2017-07-04T08:18:44.660Z,2305
2017-07-04T08:19:44.646Z,2145
2017-07-04T08:20:45.049Z,2320
2017-07-04T08:21:44.023Z,885
2017-07-04T08:22:44.690Z,1510
2017-07-04T08:23:44.660Z,2385
2017-07-04T08:24:44.088Z,480
2017-07-04T08:25:45.011Z,430
2017-07-04T08:26:44.108Z,440
2017-07-04T08:27:44.728Z,400
2017-07-04T08:28:45.051Z,955
2017-07-04T08:31:44.788Z,2390
2017-07-04T08:32:44.446Z,2365
2017-07-04T08:33:44.770Z,2445
2017-07-04T08:34:44.476Z,2440
2017-07-04T08:35:44.498Z,2475
2017-07-04T08:36:44.793Z,2520
2017-07-04T08:37:44.817Z,2520
2017-07-04T08:38:44.808Z,2530
2017-07-04T08:39:44.828Z,2465
2017-07-04T08:40:44.823Z,735
2017-07-04T08:41:45.180Z,585
2017-07-04T08:42:45.169Z,585
2017-07-04T08:43:44.877Z,520
2017-07-04T08:44:44.553Z,480
2017-07-04T08:45:44.573Z,445
2017-07-04T08:46:44.896Z,410
2017-07-04T08:47:45.206Z,2050
2017-07-04T08:48:44.283Z,2290
2017-07-04T08:49:44.298Z,2290
2017-07-04T08:50:44.920Z,2290
2017-07-04T08:51:44.636Z,2300
2017-07-04T08:52:44.303Z,2305
2017-07-04T08:53:45.278Z,2375
2017-07-04T08:54:44.954Z,2390
2017-07-04T08:55:44.342Z,2365
2017-07-04T08:56:44.353Z,2415
2017-07-04T08:57:44.685Z,2410
2017-07-04T08:58:45.007Z,2505
2017-07-04T08:59:44.702Z,2425
2017-07-04T09:00:44.700Z,650
2017-07-04T09:01:44.716Z,875
2017-07-04T09:02:44.729Z,555
2017-07-04T09:03:45.050Z,425
2017-07-04T09:04:45.075Z,285
2017-07-04T09:05:44.750Z,310
2017-07-04T09:06:45.077Z,380
2017-07-04T09:07:45.387Z,410
2017-07-04T09:08:45.116Z,315
2017-07-04T09:09:45.412Z,370
2017-07-04T09:10:45.415Z,335
2017-07-04T09:11:44.814Z,300
2017-07-04T09:12:45.416Z,275
2017-07-04T09:13:44.835Z,290
2017-07-04T09:14:45.120Z,280
2017-07-04T09:15:45.456Z,270
2017-07-04T09:16:45.126Z,275
2017-07-04T09:17:45.521Z,270
2017-07-04T09:18:44.846Z,285
2017-07-04T09:19:45.492Z,305
2017-07-04T09:20:45.187Z,315
2017-07-04T09:21:45.214Z,315
2017-07-04T09:22:45.489Z,305
2017-07-04T09:23:45.160Z,295
2017-07-04T09:24:45.513Z,310
2017-07-04T09:25:44.557Z,380
2017-07-04T09:26:44.560Z,470
2017-07-04T09:27:45.483Z,505
2017-07-04T09:28:44.887Z,520
2017-07-04T09:29:45.485Z,515
2017-07-04T09:30:44.879Z,500
2017-07-04T09:31:45.194Z,520
2017-07-04T09:32:44.577Z,535
2017-07-04T09:33:44.895Z,545
2017-07-04T09:34:45.217Z,530
2017-07-04T09:35:45.531Z,515
2017-07-04T09:36:44.906Z,475
2017-07-04T09:37:45.219Z,395
2017-07-04T09:38:45.224Z,345
2017-07-04T09:39:45.204Z,335
2017-07-04T09:40:44.926Z,375
2017-07-04T09:41:45.216Z,375
2017-07-04T09:42:44.920Z,360
2017-07-04T09:43:45.543Z,350
2017-07-04T09:44:45.255Z,335
2017-07-04T09:45:45.212Z,320
2017-07-04T09:46:44.915Z,325
2017-07-04T09:47:45.230Z,320
2017-07-04T09:48:45.579Z,315
2017-07-04T09:49:44.918Z,290
2017-07-04T09:50:44.931Z,305
2017-07-04T09:51:44.934Z,335
2017-07-04T09:52:45.238Z,330
2017-07-04T09:53:45.270Z,355
2017-07-04T09:54:44.935Z,395
2017-07-04T09:55:44.953Z,410
2017-07-04T09:56:45.234Z,420
2017-07-04T09:57:45.589Z,415
2017-07-04T09:58:45.249Z,385
2017-07-04T09:59:45.586Z,365
2017-07-04T10:00:45.249Z,360
2017-07-04T10:01:45.277Z,370
2017-07-04T10:02:44.322Z,400
2017-07-04T10:03:45.632Z,380
2017-07-04T10:04:45.274Z,365
2017-07-04T10:05:45.284Z,345
2017-07-04T10:06:45.293Z,360
2017-07-04T10:07:45.260Z,360
2017-07-04T10:08:44.634Z,320
2017-07-04T10:09:44.959Z,285
2017-07-04T10:10:44.640Z,275
2017-07-04T10:11:45.608Z,265
2017-07-04T10:12:45.835Z,270
2017-07-04T10:13:45.606Z,280
2017-07-04T10:14:45.274Z,295
2017-07-04T10:15:44.988Z,320
2017-07-04T10:16:45.270Z,340
2017-07-04T10:17:45.299Z,360
2017-07-04T10:18:45.601Z,360
2017-07-04T10:19:44.973Z,325
2017-07-04T10:20:45.289Z,290
2017-07-04T10:21:45.278Z,275
2017-07-04T10:22:45.590Z,280
2017-07-04T10:23:44.978Z,310
2017-07-04T10:24:44.666Z,340
2017-07-04T10:25:45.586Z,360
2017-07-04T10:26:45.293Z,350
2017-07-04T10:27:45.292Z,320
2017-07-04T10:28:45.607Z,310
2017-07-04T10:29:45.608Z,305
2017-07-04T10:30:44.980Z,320
2017-07-04T10:31:45.307Z,370
2017-07-04T10:32:45.619Z,440
2017-07-04T10:33:45.313Z,445
2017-07-04T10:34:45.313Z,405
2017-07-04T10:35:44.985Z,360
2017-07-04T10:36:45.297Z,335
2017-07-04T10:37:45.290Z,315
2017-07-04T10:38:44.981Z,310
2017-07-04T10:39:45.316Z,320
2017-07-04T10:40:45.309Z,370
2017-07-04T10:41:44.977Z,415
2017-07-04T10:42:45.626Z,475
2017-07-04T10:43:44.665Z,495
2017-07-04T10:44:45.005Z,470
2017-07-04T10:45:44.990Z,450
2017-07-04T10:46:45.323Z,415
2017-07-04T10:47:45.300Z,400
2017-07-04T10:48:45.656Z,410
2017-07-04T10:49:45.612Z,435
2017-07-04T10:50:44.996Z,450
2017-07-04T10:51:44.675Z,410
2017-07-04T10:52:45.647Z,350
2017-07-04T10:53:45.631Z,310
2017-07-04T10:54:45.317Z,275
2017-07-04T10:55:45.319Z,255
2017-07-04T10:56:45.014Z,265
2017-07-04T10:57:45.324Z,255
2017-07-04T10:58:45.629Z,250
2017-07-04T10:59:45.302Z,265
2017-07-04T11:00:45.020Z,290
2017-07-04T11:01:45.019Z,320
2017-07-04T11:02:45.670Z,325
2017-07-04T11:03:45.005Z,325
2017-07-04T11:04:45.033Z,325
2017-07-04T11:05:45.010Z,340
2017-07-04T11:06:45.343Z,340
2017-07-04T11:07:45.339Z,340
2017-07-04T11:08:45.679Z,320
2017-07-04T11:09:45.652Z,320
2017-07-04T11:10:45.040Z,300
2017-07-04T11:11:45.340Z,265
2017-07-04T11:12:45.028Z,265
2017-07-04T11:13:45.362Z,260
2017-07-04T11:14:45.026Z,265
2017-07-04T11:15:45.042Z,270
2017-07-04T11:16:45.021Z,280
2017-07-04T11:17:45.030Z,285
2017-07-04T11:18:45.408Z,300
2017-07-04T11:19:45.348Z,330
2017-07-04T11:20:45.676Z,375
2017-07-04T11:21:45.015Z,410
2017-07-04T11:22:45.026Z,410
2017-07-04T11:23:45.023Z,375
2017-07-04T11:24:45.362Z,345
2017-07-04T11:25:45.681Z,310
2017-07-04T11:26:45.387Z,280
2017-07-04T11:27:45.358Z,260
2017-07-04T11:28:45.660Z,255
2017-07-04T11:29:45.367Z,255
2017-07-04T11:30:45.353Z,255
2017-07-04T11:31:45.684Z,250
2017-07-04T11:32:45.384Z,265
2017-07-04T11:33:45.043Z,280
2017-07-04T11:34:45.378Z,285
2017-07-04T11:35:45.349Z,280
2017-07-04T11:36:45.069Z,270
2017-07-04T11:37:45.053Z,250
2017-07-04T11:38:44.744Z,255
2017-07-04T11:39:44.733Z,260
2017-07-04T11:40:45.399Z,265
2017-07-04T11:41:45.063Z,265
2017-07-04T11:42:45.385Z,265
2017-07-04T11:43:45.680Z,260
2017-07-04T11:44:45.391Z,270
2017-07-04T11:45:45.379Z,275
2017-07-04T11:46:44.740Z,265
2017-07-04T11:47:45.687Z,245
2017-07-04T11:48:45.712Z,240
2017-07-04T11:49:45.057Z,260
2017-07-04T11:50:45.712Z,270
2017-07-04T11:51:45.677Z,250
2017-07-04T11:52:45.730Z,245
2017-07-04T11:53:45.697Z,245
2017-07-04T11:54:45.689Z,250
2017-07-04T11:55:45.386Z,265
2017-07-04T11:56:45.103Z,270
2017-07-04T11:57:44.768Z,265
2017-07-04T11:58:45.075Z,260
2017-07-04T11:59:45.381Z,240
2017-07-04T12:00:45.055Z,240
2017-07-04T12:01:45.410Z,230
2017-07-04T12:02:45.411Z,230
2017-07-04T12:03:45.414Z,225
2017-07-04T12:04:45.395Z,225
2017-07-04T12:05:45.083Z,225
2017-07-04T12:06:45.703Z,225
2017-07-04T12:07:46.030Z,230
2017-07-04T12:08:45.391Z,240
2017-07-04T12:09:46.103Z,280
2017-07-04T12:10:45.409Z,320
2017-07-04T12:11:45.401Z,345
2017-07-04T12:12:45.746Z,340
2017-07-04T12:13:45.089Z,360
2017-07-04T12:14:45.734Z,360
2017-07-04T12:15:45.392Z,335
2017-07-04T12:16:45.715Z,320
2017-07-04T12:17:45.724Z,310
2017-07-04T12:18:45.743Z,320
2017-07-04T12:19:45.423Z,325
2017-07-04T12:20:45.402Z,330
2017-07-04T12:21:45.095Z,305
2017-07-04T12:22:45.073Z,295
2017-07-04T12:23:45.112Z,315
2017-07-04T12:24:45.440Z,355
2017-07-04T12:25:44.788Z,395
2017-07-04T12:26:45.415Z,345
2017-07-04T12:27:45.748Z,290
2017-07-04T12:28:45.398Z,275
2017-07-04T12:29:44.791Z,290
2017-07-04T12:30:45.111Z,310
2017-07-04T12:31:45.114Z,325
2017-07-04T12:32:45.442Z,300
2017-07-04T12:33:45.736Z,270
2017-07-04T12:34:45.103Z,255
2017-07-04T12:35:45.125Z,245
2017-07-04T12:36:45.416Z,250
2017-07-04T12:37:45.425Z,270
2017-07-04T12:38:45.726Z,285
2017-07-04T12:39:45.438Z,285
2017-07-04T12:40:45.106Z,270
2017-07-04T12:41:44.814Z,260
2017-07-04T12:42:45.114Z,250
2017-07-04T12:43:45.122Z,245
2017-07-04T12:44:45.773Z,255
2017-07-04T12:45:45.741Z,270
2017-07-04T12:46:45.768Z,280
2017-07-04T12:47:45.757Z,285
2017-07-04T12:48:45.762Z,280
2017-07-04T12:49:45.755Z,275
2017-07-04T12:50:45.112Z,260
2017-07-04T12:51:45.121Z,240
2017-07-04T12:52:45.782Z,220
2017-07-04T12:53:45.125Z,220
2017-07-04T12:54:45.494Z,220
2017-07-04T12:55:45.138Z,225
2017-07-04T12:56:45.149Z,240
2017-07-04T12:57:44.808Z,260
2017-07-04T12:58:45.149Z,270
2017-07-04T12:59:45.456Z,280
2017-07-04T13:00:45.458Z,280
2017-07-04T13:01:45.767Z,265
2017-07-04T13:02:45.778Z,295
2017-07-04T13:03:45.779Z,310
2017-07-04T13:04:45.788Z,320
2017-07-04T13:05:45.451Z,335
2017-07-04T13:06:45.138Z,320
2017-07-04T13:07:45.452Z,275
2017-07-04T13:08:45.788Z,260
2017-07-04T13:09:45.480Z,245
2017-07-04T13:10:44.843Z,220
2017-07-04T13:11:45.144Z,205
2017-07-04T13:12:45.156Z,190
2017-07-04T13:13:45.456Z,190
2017-07-04T13:14:45.793Z,195
2017-07-04T13:15:45.798Z,190
2017-07-04T13:16:45.466Z,200
2017-07-04T13:17:45.780Z,225
2017-07-04T13:18:45.783Z,220
2017-07-04T13:19:45.481Z,235
2017-07-04T13:20:45.484Z,240
2017-07-04T13:21:45.149Z,235
2017-07-04T13:22:45.467Z,230
2017-07-04T13:23:44.836Z,230
2017-07-04T13:24:45.817Z,220
2017-07-04T13:25:45.472Z,210
2017-07-04T13:26:45.474Z,210
2017-07-04T13:27:45.479Z,230
2017-07-04T13:28:45.164Z,250
2017-07-04T13:29:45.188Z,240
2017-07-04T13:30:45.211Z,230
2017-07-04T13:31:45.822Z,230
2017-07-04T13:32:45.781Z,250
2017-07-04T13:33:45.786Z,250
2017-07-04T13:34:45.811Z,265
2017-07-04T13:35:45.504Z,280
2017-07-04T13:36:45.806Z,300
2017-07-04T13:37:45.784Z,305
2017-07-04T13:38:45.804Z,315
2017-07-04T13:39:45.787Z,300
2017-07-04T13:40:45.814Z,290
2017-07-04T13:41:45.787Z,300
2017-07-04T13:42:45.823Z,280
2017-07-04T13:43:45.492Z,275
2017-07-04T13:44:45.503Z,270
2017-07-04T13:45:45.487Z,285
2017-07-04T13:46:45.797Z,270
2017-07-04T13:47:45.810Z,250
2017-07-04T13:48:45.841Z,230
2017-07-04T13:49:45.807Z,225
2017-07-04T13:50:45.505Z,230
2017-07-04T13:51:44.860Z,230
2017-07-04T13:52:45.507Z,230
2017-07-04T13:53:45.805Z,220
2017-07-04T13:54:45.820Z,215
2017-07-04T13:55:44.532Z,215
2017-07-04T13:56:45.833Z,220
2017-07-04T13:57:45.799Z,220
2017-07-04T13:58:45.190Z,215
2017-07-04T13:59:45.804Z,210
2017-07-04T14:00:45.178Z,200